Currently 46°F in Pinon Hills, California, USA
46°F
56°F / 34°F
2 mph W
0.00"
Wednesday, January 23, 2019 6:49 PM PST

Pinon Hills, California Weather Summary
Last 36 Hours

Temperature Winds Hourly Humidity Dewpoint
Time Report Norm Report Norm Max Gusts Precip. Rpt. Norm Rpt. Norm Pressure
1Wed 06:49 PM  45.9°F  47°F  2 mph W  3 mph  3 mph  0.00"  38%  53%  21°F  30°F  30.20"
Wed 06:00 PM  44.9°F  47°F  3 mph NW  3 mph  4 mph  0.00"  42%  54%  22°F  31°F  30.20"
Wed 05:00 PM  46.3°F  50°F  2 mph W  2 mph  6 mph  0.00"  46%  51%  26°F  32°F  30.19"
Wed 04:00 PM  54.8°F  54°F  3 mph NW  3 mph  6 mph  0.00"  31%  44%  23°F  32°F  30.22"
Wed 03:00 PM  54.3°F  56°F  calm  3 mph  7 mph  0.00"  30%  41%  22°F  31°F  30.23"
Wed 02:00 PM  53.8°F  56°F  2 mph W  4 mph  6 mph  0.00"  29%  38%  21°F  30°F  30.24"
2Wed 01:03 PM  55.9°F  56°F  calm  4 mph  none  ----  25%  38%  19°F  30°F  30.26"
Wed 01:00 PM  55.8°F  56°F  calm  4 mph  none  0.00"  25%  38%  19°F  30°F  30.26"
Wed 12:00 PM  52.9°F  55°F  calm  4 mph  none  0.00"  24%  38%  15°F  29°F  30.30"
Wed 11:00 AM  53.3°F  54°F  calm  3 mph  none  0.00"  21%  38%  13°F  29°F  30.31"
Wed 10:00 AM  49.8°F  53°F  calm  4 mph  7 mph  0.00"  22%  39%  11°F  27°F  30.32"
Wed 09:00 AM  48.4°F  51°F  calm  3 mph  none  0.00"  20%  42%  7°F  28°F  30.35"
Wed 08:00 AM  42.1°F  47°F  calm  3 mph  4 mph  0.00"  33%  47%  14°F  27°F  30.35"
Wed 07:00 AM  38.2°F  44°F  2 mph SW  3 mph  4 mph  0.00"  29%  49%  7°F  25°F  30.37"
Wed 06:00 AM  35.9°F  44°F  2 mph SW  3 mph  5 mph  0.00"  36%  49%  11°F  25°F  30.39"
3Wed 05:26 AM  34.3°F  44°F  4 mph SW  3 mph  4 mph  ----  37%  49%  9°F  26°F  30.39"
Wed 05:00 AM  35.8°F  44°F  2 mph SW  3 mph  4 mph  0.00"  36%  49%  10°F  26°F  30.37"
Wed 04:00 AM  38.0°F  44°F  2 mph S  3 mph  6 mph  0.00"  30%  50%  8°F  26°F  30.37"
Wed 03:00 AM  39.2°F  45°F  3 mph S  3 mph  9 mph  0.00"  29%  50%  8°F  26°F  30.39"
Wed 02:00 AM  39.1°F  45°F  3 mph SE  3 mph  7 mph  0.00"  29%  49%  8°F  26°F  30.40"
Wed 01:00 AM  40.1°F  46°F  3 mph S  3 mph  9 mph  0.00"  27%  48%  7°F  26°F  30.39"
Wed 12:00 AM  37.8°F  46°F  3 mph S  3 mph  8 mph  0.00"  33%  48%  10°F  26°F  30.39"
Tue 11:00 PM  37.9°F  46°F  4 mph S  3 mph  9 mph  0.00"  32%  48%  9°F  27°F  30.39"
Tue 10:00 PM  40.3°F  46°F  1 mph SE  3 mph  10 mph  0.00"  26%  50%  6°F  28°F  30.37"
Tue 09:00 PM  41.4°F  46°F  2 mph S  3 mph  13 mph  0.00"  22%  52%  4°F  29°F  30.37"
Tue 08:00 PM  40.5°F  47°F  7 mph SE  3 mph  10 mph  0.00"  22%  52%  3°F  29°F  30.36"
Tue 07:00 PM  40.8°F  47°F  2 mph S  3 mph  17 mph  0.00"  26%  55%  7°F  31°F  30.35"
Tue 06:00 PM  36.5°F  47°F  3 mph SW  3 mph  4 mph  0.00"  33%  56%  9°F  32°F  30.33"
Tue 05:00 PM  38.7°F  50°F  2 mph S  2 mph  5 mph  0.00"  38%  52%  14°F  32°F  30.32"
Tue 04:00 PM  43.6°F  54°F  2 mph E  3 mph  8 mph  0.00"  26%  45%  9°F  32°F  30.30"
Tue 03:00 PM  45.8°F  56°F  3 mph E  3 mph  11 mph  0.00"  26%  42%  11°F  32°F  30.29"
Tue 02:00 PM  46.1°F  56°F  2 mph E  4 mph  10 mph  0.00"  30%  40%  15°F  31°F  30.30"
Tue 01:00 PM  45.7°F  56°F  5 mph SE  4 mph  10 mph  0.00"  29%  40%  13°F  31°F  30.30"
Tue 12:00 PM  44.5°F  56°F  2 mph SE  4 mph  10 mph  0.00"  29%  40%  13°F  30°F  30.30"
Tue 11:00 AM  43.3°F  55°F  calm  4 mph  3 mph  0.00"  27%  40%  10°F  30°F  30.31"
Tue 10:00 AM  41.3°F  53°F  2 mph E  4 mph  10 mph  0.00"  36%  40%  15°F  29°F  30.32"
Tue 09:00 AM  39.9°F  51°F  calm  2 mph  11 mph  0.00"  35%  44%  13°F  29°F  30.29"
Tue 08:00 AM  37.6°F  47°F  5 mph SE  3 mph  11 mph  0.00"  38%  49%  13°F  28°F  30.29"
Tue 07:00 AM  35.3°F  44°F  5 mph S  3 mph  8 mph  0.00"  45%  51%  15°F  26°F  30.28"

  1. Current weather data. No green row appears if the current weather data is also the high or low for the current day.
  2. High temperature for the current day.
  3. Low temperature for the current day.

The Pinon Hills, California weather pages are a service of WeatherCurrents.
Copyright ©Wed Jan 23 18:49:45 PST 2019  WeatherCurrents. All rights reserved. - Submit questions and comments - Privacy Policy

This page automatically refreshes every 10 minutes.